Time;durP1;ratioP1;P1;durP2;ratioP2;P2;SDS_P1;SDS_P2;PMS_P1;PMS_P2;Temp;Humidity;BMP_temperature;BMP_pressure;BME280_temperature;BME280_humidity;BME280_pressure;Samples;Min_cycle;Max_cycle;Signal;HPM_P1;HPM_P2
2022/06/19 00:01:08;;;;;;;5.63;2.63;;;;;;;25.27;42.95;95395.59;5051643;28;20206;-86
2022/06/19 00:03:54;;;;;;;6.35;2.83;;;;;;;25.14;43.03;95388.31;5044557;28;20304;-86
2022/06/19 00:06:21;;;;;;;4.63;2.70;;;;;;;25.04;43.54;95383.88;5051084;28;20225;-86
2022/06/19 00:08:51;;;;;;;3.88;2.78;;;;;;;25.01;43.64;95379.16;5050632;28;20589;-87
2022/06/19 00:14:01;;;;;;;5.35;2.90;;;;;;;25.04;43.76;95375.97;5013439;28;20226;-86
2022/06/19 00:16:27;;;;;;;7.00;3.22;;;;;;;24.99;43.85;95376.00;5012396;28;20213;-87
2022/06/19 00:18:54;;;;;;;4.93;3.03;;;;;;;25.03;44.10;95366.47;5030096;28;20628;-87
2022/06/19 00:21:20;;;;;;;5.88;2.88;;;;;;;24.87;44.23;95364.97;5031661;28;20361;-87
2022/06/19 00:24:06;;;;;;;7.15;2.90;;;;;;;24.75;44.33;95346.84;5046944;28;20794;-87
2022/06/19 00:26:33;;;;;;;6.50;3.00;;;;;;;24.69;44.53;95339.25;5036708;28;20685;-87
2022/06/19 00:29:00;;;;;;;5.10;2.65;;;;;;;24.65;44.51;95336.38;5031728;28;20612;-87
2022/06/19 00:31:41;;;;;;;5.07;2.40;;;;;;;24.69;44.41;95336.63;5043806;28;20688;-87
2022/06/19 00:34:08;;;;;;;4.82;2.65;;;;;;;24.63;44.50;95332.44;5012764;28;20223;-87
2022/06/19 00:36:35;;;;;;;6.28;2.70;;;;;;;24.70;44.29;95330.28;5025479;28;20204;-87
2022/06/19 00:39:01;;;;;;;4.95;3.03;;;;;;;24.71;44.11;95326.59;5031719;28;20308;-86
2022/06/19 00:41:45;;;;;;;8.30;2.83;;;;;;;24.48;44.48;95314.84;5029214;28;20241;-87
2022/06/19 00:44:14;;;;;;;6.00;2.80;;;;;;;24.44;44.74;95309.34;5028986;28;20253;-87
2022/06/19 00:49:29;;;;;;;5.20;2.80;;;;;;;24.38;44.92;95291.22;5049366;28;20244;-87
2022/06/19 00:52:30;;;;;;;5.10;2.70;;;;;;;24.29;45.16;95288.34;5033967;28;20203;-87
2022/06/19 00:55:14;;;;;;;6.30;2.78;;;;;;;24.38;44.84;95280.69;5046910;28;20209;-86
2022/06/19 00:57:46;;;;;;;7.32;2.92;;;;;;;24.42;44.89;95289.63;5010641;28;20201;-86
2022/06/19 01:00:16;;;;;;;6.07;3.20;;;;;;;24.56;44.46;95301.13;5012350;28;20223;-86
2022/06/19 01:02:59;;;;;;;4.60;2.50;;;;;;;24.60;44.84;95304.03;5039238;28;20220;-87
2022/06/19 01:05:28;;;;;;;9.60;3.20;;;;;;;24.66;44.66;95308.19;5008642;28;20222;-86
2022/06/19 01:07:57;;;;;;;5.28;3.00;;;;;;;24.73;44.77;95308.69;5010142;28;20195;-87
2022/06/19 01:10:52;;;;;;;8.18;3.33;;;;;;;24.69;45.19;95313.69;5013101;28;20749;-87
2022/06/19 01:13:39;;;;;;;6.25;3.20;;;;;;;24.71;45.32;95311.59;5033315;28;20709;-86
2022/06/19 01:16:06;;;;;;;8.02;3.17;;;;;;;24.58;45.84;95306.13;5022886;28;20199;-87
2022/06/19 01:18:35;;;;;;;6.75;3.00;;;;;;;24.45;45.91;95299.59;5010074;28;20215;-87
2022/06/19 01:21:17;;;;;;;5.97;3.20;;;;;;;24.45;45.91;95296.97;5014856;28;20201;-87
2022/06/19 01:24:13;;;;;;;7.90;3.28;;;;;;;24.37;46.42;95294.91;5033850;28;20225;-86
2022/06/19 01:26:45;;;;;;;8.00;3.40;;;;;;;24.27;46.55;95285.19;5038858;28;20306;-86
2022/06/19 01:29:11;;;;;;;7.95;3.53;;;;;;;24.24;46.29;95280.50;5029822;28;20222;-86
2022/06/19 01:31:55;;;;;;;6.85;2.70;;;;;;;24.28;46.69;95272.84;5031225;28;20209;-86
2022/06/19 01:34:28;;;;;;;8.68;3.33;;;;;;;24.22;46.63;95261.53;5036260;28;20614;-86
2022/06/19 01:37:14;;;;;;;6.78;3.13;;;;;;;24.14;46.60;95251.56;5029595;28;20202;-87
2022/06/19 01:39:44;;;;;;;8.40;3.38;;;;;;;24.08;46.82;95256.03;5031978;28;20217;-87
2022/06/19 01:42:13;;;;;;;8.50;3.50;;;;;;;24.09;46.20;95243.69;5005592;28;1045334;-87
2022/06/19 01:44:54;;;;;;;7.53;3.28;;;;;;;24.08;46.05;95232.38;5028264;28;20578;-86
2022/06/19 01:47:23;;;;;;;5.10;3.10;;;;;;;24.03;46.14;95234.25;5010570;28;20699;-87
2022/06/19 01:49:52;;;;;;;6.68;3.10;;;;;;;23.99;46.02;95236.63;5011666;28;20214;-86
2022/06/19 01:52:32;;;;;;;6.07;3.03;;;;;;;24.02;45.82;95236.09;5024046;28;20784;-86
2022/06/19 01:55:05;;;;;;;10.77;3.20;;;;;;;24.15;45.81;95229.47;5048717;28;20193;-87
2022/06/19 01:57:51;;;;;;;8.25;3.45;;;;;;;24.11;45.42;95225.78;5050243;28;20649;-87
2022/06/19 02:00:24;;;;;;;5.57;3.35;;;;;;;23.97;45.38;95216.91;5041209;28;20225;-86
2022/06/19 02:03:09;;;;;;;10.07;2.95;;;;;;;23.92;45.37;95216.94;5039162;28;20229;-86
2022/06/19 02:05:38;;;;;;;8.77;3.25;;;;;;;23.81;45.90;95215.41;5029877;28;20197;-86
2022/06/19 02:08:05;;;;;;;6.95;3.47;;;;;;;23.77;46.30;95204.63;5047764;28;20200;-87
2022/06/19 02:10:32;;;;;;;7.35;3.45;;;;;;;23.75;46.20;95197.00;5049299;28;20229;-87
2022/06/19 02:13:17;;;;;;;7.70;3.42;;;;;;;23.75;46.50;95194.38;5020257;28;20233;-86
2022/06/19 02:15:46;;;;;;;10.27;3.85;;;;;;;23.76;46.72;95197.78;4998615;28;20207;-86
2022/06/19 02:18:37;;;;;;;6.60;2.92;;;;;;;23.70;47.21;95196.22;5016632;28;20194;-86
2022/06/19 02:21:06;;;;;;;9.57;3.53;;;;;;;23.76;46.93;95197.78;5029250;28;20206;-86
2022/06/19 02:23:51;;;;;;;6.40;3.40;;;;;;;23.82;46.89;95193.31;5040372;28;20217;-86
2022/06/19 02:26:19;;;;;;;7.75;3.28;;;;;;;23.76;47.29;95192.53;5049597;28;20228;-87
2022/06/19 02:28:50;;;;;;;10.38;3.47;;;;;;;23.75;47.46;95189.13;5031912;28;20309;-86
2022/06/19 02:31:32;;;;;;;10.32;3.53;;;;;;;23.71;47.70;95182.03;5029002;28;20194;-85
2022/06/19 02:34:04;;;;;;;9.85;3.42;;;;;;;23.66;47.95;95176.81;5026820;28;20230;-86
2022/06/19 02:36:50;;;;;;;8.35;3.50;;;;;;;23.72;47.57;95178.34;5029959;28;20206;-86
2022/06/19 02:39:28;;;;;;;7.05;3.45;;;;;;;23.80;47.88;95179.66;5007464;28;20231;-86
2022/06/19 02:42:44;;;;;;;9.48;4.00;;;;;;;23.70;48.24;95180.44;5012985;28;20207;-86
2022/06/19 02:45:15;;;;;;;8.82;3.70;;;;;;;23.63;48.14;95175.50;5009805;28;20202;-86
2022/06/19 02:47:43;;;;;;;5.20;3.30;;;;;;;23.39;48.67;95174.47;5026891;28;20225;-87
2022/06/19 02:50:26;;;;;;;9.55;3.50;;;;;;;23.35;49.05;95174.22;5048732;28;20229;-87
2022/06/19 02:52:54;;;;;;;7.05;3.38;;;;;;;23.27;49.12;95168.75;5034740;28;20236;-86
2022/06/19 02:58:04;;;;;;;9.40;3.22;;;;;;;23.16;49.18;95162.69;5035209;28;20256;-86
2022/06/19 03:00:32;;;;;;;10.02;3.60;;;;;;;23.24;48.73;95158.75;5048479;28;20244;-86
2022/06/19 03:03:05;;;;;;;12.00;3.90;;;;;;;23.30;48.74;95161.09;5036534;28;20230;-87
2022/06/19 03:05:44;;;;;;;9.05;3.67;;;;;;;23.19;49.03;95156.91;5011350;28;20199;-86
2022/06/19 03:08:13;;;;;;;8.90;3.70;;;;;;;23.23;48.83;95154.56;5009343;28;20214;-86
2022/06/19 03:10:40;;;;;;;8.32;3.45;;;;;;;23.22;48.73;95156.41;5017842;28;20201;-86
2022/06/19 03:13:06;;;;;;;7.43;3.40;;;;;;;23.30;48.32;95160.31;5028365;28;20732;-86
2022/06/19 03:16:00;;;;;;;6.63;3.10;;;;;;;23.39;48.44;95167.38;5020004;28;20205;-86
2022/06/19 03:18:26;;;;;;;8.55;3.40;;;;;;;23.36;48.30;95170.53;5009389;28;20210;-86
2022/06/19 03:21:13;;;;;;;8.20;3.70;;;;;;;23.37;48.33;95166.06;5018955;28;20228;-86
2022/06/19 03:23:51;;;;;;;8.00;3.85;;;;;;;23.24;48.36;95174.53;5028440;28;20229;-86
2022/06/19 03:26:27;;;;;;;12.90;4.07;;;;;;;23.27;48.51;95174.78;5018747;28;20222;-86
2022/06/19 03:28:54;;;;;;;6.85;3.65;;;;;;;23.42;47.74;95169.47;5013149;28;20222;-86
2022/06/19 03:31:24;;;;;;;9.35;3.97;;;;;;;23.47;47.83;95173.94;5013275;28;20198;-87
2022/06/19 03:34:05;;;;;;;8.18;3.75;;;;;;;23.43;47.91;95165.00;5028916;28;20221;-87
2022/06/19 03:36:32;;;;;;;8.52;3.88;;;;;;;23.50;47.64;95168.13;5032723;28;20201;-87
2022/06/19 03:39:00;;;;;;;12.10;4.03;;;;;;;23.55;47.65;95167.38;5032784;28;20231;-87
2022/06/19 03:41:26;;;;;;;7.72;3.67;;;;;;;23.61;47.36;95172.34;5032095;28;20613;-86
2022/06/19 03:46:41;;;;;;;9.48;3.58;;;;;;;23.78;46.66;95169.38;5049311;28;20760;-86
2022/06/19 03:49:09;;;;;;;6.35;3.38;;;;;;;23.83;46.18;95174.63;5039698;28;20221;-86
2022/06/19 03:51:51;;;;;;;7.70;3.30;;;;;;;23.85;46.03;95174.38;5033462;28;20206;-87
2022/06/19 03:54:46;;;;;;;10.05;3.50;;;;;;;23.85;46.10;95166.47;5052077;28;20225;-87
2022/06/19 03:57:13;;;;;;;14.68;3.70;;;;;;;23.85;45.83;95174.38;5007045;28;20569;-86
2022/06/19 03:59:40;;;;;;;12.00;4.15;;;;;;;23.79;45.89;95170.19;5013150;28;20219;-86
2022/06/19 04:02:20;;;;;;;;;;;;;;;;;;;;;
2022/06/19 04:04:47;;;;;;;10.70;3.67;;;;;;;23.65;46.02;95175.22;5037545;28;20839;-86
2022/06/19 04:07:15;;;;;;;7.68;3.67;;;;;;;23.63;46.60;95172.09;5051960;28;20248;-86
2022/06/19 04:09:42;;;;;;;9.52;3.83;;;;;;;23.70;46.27;95167.31;5012369;28;20229;-86
2022/06/19 04:14:52;;;;;;;6.93;3.50;;;;;;;23.71;46.46;95167.03;4992456;28;20626;-86
2022/06/19 04:17:26;;;;;;;7.95;3.20;;;;;;;23.79;46.37;95176.22;5012112;28;20209;-87
2022/06/19 04:19:52;;;;;;;12.95;3.35;;;;;;;23.84;45.68;95172.78;5012232;28;20214;-86
2022/06/19 04:22:34;;;;;;;11.77;3.60;;;;;;;23.86;45.90;95171.44;5010300;28;20712;-86
2022/06/19 04:25:00;;;;;;;9.05;3.65;;;;;;;23.84;46.98;95170.16;5011180;28;20203;-87
2022/06/19 04:27:27;;;;;;;13.48;4.20;;;;;;;23.85;46.47;95174.38;5012336;28;20223;-86
2022/06/19 04:29:54;;;;;;;13.27;3.53;;;;;;;23.86;46.64;95174.06;5011988;28;20331;-87
2022/06/19 04:32:34;;;;;;;6.10;3.47;;;;;;;23.92;46.51;95178.25;5015199;28;20230;-86
2022/06/19 04:35:00;;;;;;;12.15;3.80;;;;;;;24.02;46.42;95172.97;5012134;28;20228;-86
2022/06/19 04:37:27;;;;;;;11.05;3.63;;;;;;;24.08;46.35;95181.59;5012418;28;20221;-87
2022/06/19 04:39:55;;;;;;;9.02;3.55;;;;;;;24.11;46.74;95184.47;5011799;28;20245;-86
2022/06/19 04:42:35;;;;;;;8.63;3.55;;;;;;;24.10;46.79;95179.50;5018390;28;20309;-86
2022/06/19 04:45:02;;;;;;;8.52;4.20;;;;;;;24.17;46.72;95174.72;5036498;28;20684;-86
2022/06/19 04:47:28;;;;;;;8.77;3.85;;;;;;;24.19;46.50;95179.72;5031417;28;20226;-87
2022/06/19 04:50:01;;;;;;;9.10;3.88;;;;;;;24.30;46.35;95186.53;5032333;28;20221;-87
2022/06/19 04:52:36;;;;;;;11.88;3.60;;;;;;;24.39;46.16;95190.16;5033649;28;20222;-85
2022/06/19 04:55:03;;;;;;;10.80;4.10;;;;;;;24.43;46.46;95191.97;5034764;28;20197;-86
2022/06/19 04:57:29;;;;;;;6.28;3.40;;;;;;;24.51;46.36;95192.44;5031405;28;20198;-85
2022/06/19 04:59:55;;;;;;;11.85;3.72;;;;;;;24.53;46.45;95191.13;5045863;28;20221;-86
2022/06/19 05:02:22;;;;;;;12.40;3.67;;;;;;;24.55;46.47;95189.00;5050013;28;20229;-87
2022/06/19 05:04:59;;;;;;;6.93;3.25;;;;;;;24.58;46.74;95182.41;5044885;28;20205;-87
2022/06/19 05:07:26;;;;;;;11.15;3.90;;;;;;;24.62;46.64;95186.06;5031973;28;20214;-86
2022/06/19 05:09:52;;;;;;;9.25;3.90;;;;;;;24.71;46.29;95193.09;5031972;28;20241;-86
2022/06/19 05:12:19;;;;;;;11.23;3.72;;;;;;;24.79;46.32;95183.84;5022069;28;20241;-84
2022/06/19 05:14:45;;;;;;;12.18;3.50;;;;;;;24.88;45.83;95189.28;5031063;28;20206;-85
2022/06/19 05:17:32;;;;;;;12.13;3.97;;;;;;;24.96;46.01;95192.16;5031360;28;20574;-84
2022/06/19 05:20:00;;;;;;;12.80;3.88;;;;;;;25.02;45.92;95193.66;5031321;28;20612;-84
2022/06/19 05:22:27;;;;;;;10.45;3.70;;;;;;;25.10;44.97;95190.44;5038451;28;20235;-84
2022/06/19 05:25:08;;;;;;;8.98;3.75;;;;;;;25.14;45.16;95180.13;5048690;28;20201;-84
2022/06/19 05:27:41;;;;;;;14.15;4.05;;;;;;;25.21;44.55;95180.56;5041868;28;20692;-84
2022/06/19 05:30:33;;;;;;;10.80;3.95;;;;;;;25.34;44.43;95187.06;5042622;28;20226;-84
2022/06/19 05:33:00;;;;;;;9.80;3.88;;;;;;;25.37;44.32;95183.88;5040720;28;20229;-84
2022/06/19 05:35:50;;;;;;;8.75;3.40;;;;;;;25.58;47.75;95176.53;5043339;28;20202;-89
2022/06/19 05:38:38;;;;;;;7.72;3.47;;;;;;;25.78;47.03;95177.13;5037028;28;20195;-87
2022/06/19 05:41:13;;;;;;;9.63;3.63;;;;;;;25.98;46.26;95177.94;5050247;28;20189;-87
2022/06/19 05:43:39;;;;;;;7.50;3.50;;;;;;;26.15;46.91;95176.41;5045553;28;20240;-88
2022/06/19 05:46:23;;;;;;;10.30;3.55;;;;;;;26.27;46.51;95177.81;5049894;28;20205;-88
2022/06/19 05:48:53;;;;;;;12.98;3.75;;;;;;;26.39;45.61;95175.56;5035342;28;20237;-87
2022/06/19 05:54:10;;;;;;;13.30;3.83;;;;;;;26.53;45.36;95165.06;5037068;28;20841;-88
2022/06/19 05:56:42;;;;;;;7.82;3.50;;;;;;;26.58;44.43;95168.41;5054202;28;20198;-88
2022/06/19 05:59:36;;;;;;;7.57;3.55;;;;;;;26.59;44.37;95177.13;5037929;28;20214;-87
2022/06/19 06:02:23;;;;;;;9.90;3.42;;;;;;;26.59;44.13;95171.84;5028459;28;20190;-88
2022/06/19 06:10:47;;;;;;;8.45;3.70;;;;;;;26.67;43.06;95177.25;4999979;28;20250;-88
2022/06/19 06:13:13;;;;;;;14.18;3.60;;;;;;;26.79;43.82;95168.88;5000256;28;20342;-87
2022/06/19 06:16:00;;;;;;;7.45;4.03;;;;;;;26.90;43.93;95180.09;5048730;28;20198;-86
2022/06/19 06:18:32;;;;;;;9.63;4.10;;;;;;;26.98;43.89;95182.06;5042292;28;20214;-86
2022/06/19 06:21:50;;;;;;;12.40;4.57;;;;;;;27.04;43.49;95179.06;5053494;28;20212;-87
2022/06/19 06:24:26;;;;;;;10.73;3.95;;;;;;;27.06;43.00;95179.56;4929452;28;20212;-88
2022/06/19 06:27:23;;;;;;;8.77;3.97;;;;;;;27.09;43.04;95186.94;4978123;28;20211;-87
2022/06/19 06:30:08;;;;;;;17.73;4.63;;;;;;;27.11;42.03;95178.72;4995075;28;20269;-87
2022/06/19 06:32:39;;;;;;;11.43;4.05;;;;;;;27.17;42.39;95180.16;5003872;28;20290;-87
2022/06/19 06:35:25;;;;;;;10.48;3.60;;;;;;;27.26;42.02;95191.66;5014359;28;20191;-86
2022/06/19 06:38:00;;;;;;;13.15;4.72;;;;;;;27.33;42.21;95193.91;5020457;28;20566;-86
2022/06/19 06:40:41;;;;;;;9.88;3.53;;;;;;;27.37;42.34;95189.59;5019874;28;20302;-87
2022/06/19 06:46:49;;;;;;;10.95;4.05;;;;;;;27.51;40.72;95196.50;5036918;28;20262;-87
2022/06/19 06:49:34;;;;;;;12.73;4.07;;;;;;;27.67;41.56;95190.94;5058463;28;20225;-87
2022/06/19 06:54:54;;;;;;;14.35;4.38;;;;;;;27.78;40.75;95192.31;5036317;28;20550;-87
2022/06/19 06:58:04;;;;;;;10.52;4.00;;;;;;;27.85;40.86;95196.13;5048428;28;20202;-85
2022/06/19 07:00:39;;;;;;;11.35;3.85;;;;;;;27.89;39.59;95191.06;4972231;28;20222;-85
2022/06/19 07:03:07;;;;;;;16.83;4.40;;;;;;;27.88;38.65;95194.00;5032055;28;20314;-86
2022/06/19 07:05:33;;;;;;;13.88;4.20;;;;;;;27.93;39.17;95194.66;5020843;28;20218;-84
2022/06/19 07:08:00;;;;;;;8.70;3.50;;;;;;;27.98;39.16;95185.81;5016738;28;20219;-86
2022/06/19 07:10:27;;;;;;;15.27;4.10;;;;;;;28.11;39.23;95182.38;5013922;28;20226;-82
2022/06/19 07:12:56;;;;;;;16.35;5.05;;;;;;;28.17;38.79;95181.19;5017866;28;20605;-85
2022/06/19 07:15:28;;;;;;;13.80;4.20;;;;;;;28.25;38.97;95180.53;5034167;28;20268;-84
2022/06/19 07:17:55;;;;;;;11.88;4.07;;;;;;;28.18;38.25;95185.41;5028975;28;20356;-85
2022/06/19 07:20:22;;;;;;;17.08;4.68;;;;;;;28.12;38.62;95182.06;5011283;28;20230;-84
2022/06/19 07:26:43;;;;;;;13.10;4.20;;;;;;;28.40;38.48;95182.06;4955134;28;20211;-86
2022/06/19 07:29:12;;;;;;;12.30;4.07;;;;;;;28.46;39.29;95184.31;5014201;23;20276;-85
2022/06/19 07:32:01;;;;;;;12.32;4.70;;;;;;;28.53;39.35;95182.00;4988071;28;20212;-87
2022/06/19 07:34:29;;;;;;;15.35;4.75;;;;;;;28.61;39.86;95182.38;4987604;28;20657;-84
2022/06/19 07:36:55;;;;;;;17.42;4.55;;;;;;;28.68;39.30;95180.09;4990096;28;20660;-85
2022/06/19 07:39:23;;;;;;;12.88;4.38;;;;;;;28.81;39.68;95181.94;4990339;28;20226;-84
2022/06/19 07:41:51;;;;;;;14.73;4.57;;;;;;;28.92;38.84;95185.13;4988344;28;20199;-84
2022/06/19 07:44:21;;;;;;;13.77;4.30;;;;;;;28.97;38.84;95192.97;5011232;28;20206;-85
2022/06/19 07:52:17;;;;;;;14.50;4.13;;;;;;;29.11;38.26;95183.06;5011053;28;20261;-85
2022/06/19 07:54:43;;;;;;;12.75;4.50;;;;;;;29.18;38.56;95189.50;5012445;28;20210;-86
2022/06/19 07:57:09;;;;;;;12.73;4.63;;;;;;;29.29;38.39;95184.72;5011522;28;20261;-85
2022/06/19 07:59:46;;;;;;;15.18;4.35;;;;;;;29.48;38.80;95185.31;5011199;28;20233;-86
2022/06/19 08:02:13;;;;;;;12.68;4.40;;;;;;;29.65;37.96;95189.91;5009057;28;20249;-85
2022/06/19 08:04:40;;;;;;;12.40;4.47;;;;;;;29.79;38.24;95187.16;5010988;28;20202;-85
2022/06/19 08:07:07;;;;;;;10.13;4.43;;;;;;;29.99;39.03;95189.28;5015129;28;20252;-85
2022/06/19 08:09:33;;;;;;;14.73;4.50;;;;;;;30.12;37.45;95187.56;5021807;28;20246;-85
2022/06/19 08:12:06;;;;;;;14.27;4.78;;;;;;;30.28;37.62;95195.88;5013224;28;20187;-85
2022/06/19 08:14:35;;;;;;;17.95;4.68;;;;;;;30.43;37.95;95196.19;5015313;28;20203;-83
2022/06/19 08:17:02;;;;;;;12.85;4.40;;;;;;;30.57;36.71;95198.75;5014802;28;20198;-84
2022/06/19 08:19:28;;;;;;;12.85;4.97;;;;;;;30.72;36.68;95192.97;5014113;28;20226;-85
2022/06/19 08:21:56;;;;;;;13.32;5.35;;;;;;;30.81;35.71;95196.38;5012384;28;20195;-84
2022/06/19 08:24:37;;;;;;;11.63;5.47;;;;;;;30.89;35.36;95197.50;5014484;28;20578;-84
2022/06/19 08:27:04;;;;;;;16.17;5.35;;;;;;;30.94;34.97;95191.22;5014380;28;20205;-84
2022/06/19 08:29:31;;;;;;;10.82;4.50;;;;;;;31.02;35.62;95188.53;5014096;28;20231;-86
2022/06/19 08:31:57;;;;;;;13.05;4.60;;;;;;;31.00;35.05;95201.38;5000835;28;20205;-84
2022/06/19 08:34:27;;;;;;;14.48;5.57;;;;;;;31.07;35.44;95193.72;5013786;28;20198;-84
2022/06/19 08:36:57;;;;;;;17.40;5.05;;;;;;;31.29;35.50;95195.41;5012435;28;20195;-84
2022/06/19 08:39:24;;;;;;;16.92;4.82;;;;;;;31.46;35.27;95186.59;5015292;28;20225;-85
2022/06/19 08:42:21;;;;;;;13.55;4.90;;;;;;;31.46;35.12;95189.25;5013297;28;20207;-84
2022/06/19 08:45:04;;;;;;;16.55;5.20;;;;;;;31.42;34.92;95183.00;5013283;28;20226;-84
2022/06/19 08:47:53;;;;;;;11.77;4.40;;;;;;;31.41;34.89;95192.84;5001602;28;20191;-84
2022/06/19 08:50:44;;;;;;;17.55;5.35;;;;;;;31.50;34.87;95182.97;5009541;28;20222;-84
2022/06/19 08:53:42;;;;;;;14.27;4.97;;;;;;;31.63;34.73;95185.75;5024842;28;20709;-85
2022/06/19 08:56:16;;;;;;;18.35;4.97;;;;;;;31.70;34.85;95188.72;5015306;28;20214;-85
2022/06/19 08:59:04;;;;;;;17.00;5.38;;;;;;;31.82;35.03;95178.16;5029842;28;20876;-84
2022/06/19 09:01:50;;;;;;;12.57;5.57;;;;;;;31.86;35.15;95179.09;5032136;28;20230;-84
2022/06/19 09:07:25;;;;;;;12.38;4.70;;;;;;;32.04;35.55;95177.13;5015268;28;20586;-85
2022/06/19 09:10:09;;;;;;;10.32;4.53;;;;;;;32.21;34.81;95175.16;5031040;28;20225;-84
2022/06/19 09:12:53;;;;;;;14.50;5.18;;;;;;;32.38;35.35;95168.91;5030249;28;20226;-85
2022/06/19 09:15:29;;;;;;;15.18;5.80;;;;;;;32.48;35.19;95181.09;5029011;28;20206;-85
2022/06/19 09:18:01;;;;;;;14.88;5.35;;;;;;;32.65;34.55;95185.50;5031388;28;20208;-84
2022/06/19 09:20:40;;;;;;;12.63;4.80;;;;;;;32.82;34.32;95180.03;5024648;28;20226;-85
2022/06/19 09:23:35;;;;;;;11.00;5.55;;;;;;;32.89;34.48;95180.31;5010554;28;20237;-84
2022/06/19 09:26:08;;;;;;;15.35;5.20;;;;;;;33.02;33.72;95178.44;5011607;28;20222;-83
2022/06/19 09:28:46;;;;;;;15.73;5.13;;;;;;;33.14;34.00;95181.13;5011762;28;20229;-85
2022/06/19 09:31:21;;;;;;;16.83;5.65;;;;;;;33.26;33.77;95174.00;5012272;28;20207;-84
2022/06/19 09:34:21;;;;;;;;;;;;;;;;;;;;;
2022/06/19 09:36:53;;;;;;;12.75;5.03;;;;;;;33.08;33.66;95174.47;5011107;28;20294;-85
2022/06/19 09:39:46;;;;;;;10.40;4.80;;;;;;;33.06;34.03;95174.78;5011969;28;20214;-82
2022/06/19 09:42:17;;;;;;;11.65;5.30;;;;;;;33.17;33.74;95172.47;5005653;28;20320;-83
2022/06/19 09:44:50;;;;;;;15.40;5.65;;;;;;;33.25;33.40;95179.63;5026601;28;20211;-83
2022/06/19 09:47:24;;;;;;;12.35;5.60;;;;;;;33.37;32.93;95173.56;5015337;28;20282;-83
2022/06/19 09:49:58;;;;;;;10.02;4.97;;;;;;;33.40;32.96;95175.56;5015519;28;20637;-85
2022/06/19 09:52:30;;;;;;;10.55;5.00;;;;;;;33.52;33.65;95171.00;5004311;28;20269;-85
2022/06/19 09:55:02;;;;;;;11.73;5.22;;;;;;;33.67;32.58;95160.81;5006227;28;20261;-84
2022/06/19 09:57:35;;;;;;;12.10;5.40;;;;;;;33.77;32.54;95160.34;5014507;28;20203;-83
2022/06/19 10:00:13;;;;;;;11.60;5.45;;;;;;;33.88;32.00;95158.78;5013276;28;20226;-84
2022/06/19 10:02:51;;;;;;;12.57;5.68;;;;;;;34.01;32.61;95160.38;4988768;28;20905;-84
2022/06/19 10:05:46;;;;;;;11.70;5.53;;;;;;;34.04;31.38;95146.34;5020757;28;20248;-84
2022/06/19 10:08:29;;;;;;;;;;;;;;;;;;;;;
2022/06/19 10:11:04;;;;;;;13.68;5.85;;;;;;;34.20;31.87;95141.84;4997297;28;20586;-84
2022/06/19 10:13:42;;;;;;;13.55;6.07;;;;;;;34.19;30.95;95142.19;5025207;28;20746;-85
2022/06/19 10:16:19;;;;;;;15.35;6.05;;;;;;;34.21;30.91;95135.38;4993212;28;20679;-84
2022/06/19 10:18:51;;;;;;;11.50;5.85;;;;;;;34.33;30.50;95139.16;4998428;28;20237;-84
2022/06/19 10:24:29;;;;;;;18.30;5.97;;;;;;;34.35;30.17;95137.72;4993561;28;20229;-84
2022/06/19 10:27:03;;;;;;;11.70;6.10;;;;;;;34.43;30.42;95128.78;5009626;28;20254;-84
2022/06/19 10:29:48;;;;;;;12.70;6.28;;;;;;;34.51;29.58;95127.06;5023535;23;20240;-84
2022/06/19 10:32:40;;;;;;;;;;;;;;;;;;;;;
2022/06/19 10:35:15;;;;;;;10.55;6.30;;;;;;;34.57;30.16;95125.72;5018318;28;20199;-84
2022/06/19 10:38:00;;;;;;;9.35;6.13;;;;;;;34.73;30.59;95126.53;5029415;28;20209;-85
2022/06/19 10:40:42;;;;;;;13.35;6.53;;;;;;;34.88;30.46;95122.38;5028230;28;20221;-85
2022/06/19 10:43:32;;;;;;;14.60;6.85;;;;;;;35.02;30.51;95127.31;5028196;28;20226;-84
2022/06/19 10:46:18;;;;;;;12.32;6.45;;;;;;;35.18;30.63;95123.53;5028853;28;20194;-83
2022/06/19 10:48:57;;;;;;;12.52;6.60;;;;;;;35.16;30.63;95136.50;5029082;28;20232;-84
2022/06/19 10:51:51;;;;;;;13.68;7.20;;;;;;;35.23;29.80;95125.94;5008586;28;20623;-85
2022/06/19 10:54:41;;;;;;;12.38;6.45;;;;;;;35.24;30.00;95130.19;5011438;28;20214;-85
2022/06/19 10:57:26;;;;;;;12.13;7.00;;;;;;;35.35;29.53;95116.31;5029382;28;20233;-84
2022/06/19 10:59:54;;;;;;;12.18;7.25;;;;;;;35.44;30.50;95106.19;5029120;28;20585;-85
2022/06/19 11:05:28;;;;;;;10.02;6.43;;;;;;;35.67;29.23;95109.81;5029173;28;20205;-85
2022/06/19 11:08:04;;;;;;;11.80;6.28;;;;;;;35.60;28.91;95109.66;5039060;28;20631;-85
2022/06/19 11:10:38;;;;;;;10.43;6.68;;;;;;;35.52;28.64;95095.31;5028148;28;20247;-84
2022/06/19 11:13:05;;;;;;;10.70;8.10;;;;;;;35.50;29.75;95102.13;5024171;28;20278;-85
2022/06/19 11:15:54;;;;;;;11.38;6.53;;;;;;;35.56;29.41;95103.44;5034427;28;20705;-85
2022/06/19 11:18:25;;;;;;;11.32;6.93;;;;;;;35.63;29.73;95098.22;5023539;28;20213;-85
2022/06/19 11:21:11;;;;;;;16.60;6.35;;;;;;;35.55;29.68;95099.22;5027374;28;20194;-85
2022/06/19 11:23:42;;;;;;;15.57;6.50;;;;;;;35.57;30.15;95102.31;5028177;28;20643;-85
2022/06/19 11:28:59;;;;;;;11.35;6.63;;;;;;;35.88;29.70;95091.56;5025428;28;20255;-85
2022/06/19 11:31:30;;;;;;;13.57;7.00;;;;;;;35.95;30.13;95097.09;5027478;28;20210;-85
2022/06/19 11:34:43;;;;;;;13.13;6.88;;;;;;;36.03;29.68;95092.63;5028005;28;20226;-85
2022/06/19 11:37:11;;;;;;;12.45;6.93;;;;;;;36.09;29.25;95093.16;5027970;28;20206;-85
2022/06/19 11:42:39;;;;;;;13.60;6.18;;;;;;;36.14;29.37;95084.84;5024873;28;20304;-85
2022/06/19 11:46:01;;;;;;;13.60;6.65;;;;;;;36.18;29.98;95085.69;5028730;28;20218;-84
2022/06/19 11:48:28;;;;;;;12.90;6.55;;;;;;;36.10;29.63;95081.28;5032289;28;20218;-85
2022/06/19 11:50:58;;;;;;;13.70;6.55;;;;;;;36.15;29.54;95083.69;5031616;28;20198;-85
2022/06/19 11:53:41;;;;;;;10.10;6.70;;;;;;;36.30;29.68;95082.88;5031040;28;20229;-85
2022/06/19 11:56:30;;;;;;;13.57;6.38;;;;;;;36.32;29.74;95076.03;5032372;28;20205;-85
2022/06/19 11:58:59;;;;;;;13.60;6.68;;;;;;;36.32;29.90;95070.69;5031040;28;20241;-85
2022/06/19 12:01:48;;;;;;;14.25;6.82;;;;;;;36.48;30.62;95072.50;5031460;28;20241;-86
2022/06/19 12:07:41;;;;;;;15.93;7.53;;;;;;;36.52;29.06;95079.50;5022578;28;20213;-85
2022/06/19 12:10:21;;;;;;;11.55;7.10;;;;;;;36.40;29.34;95074.25;5031867;28;20252;-84
2022/06/19 12:13:01;;;;;;;16.45;12.45;;;;;;;36.42;28.61;95065.88;5026390;28;20676;-84
2022/06/19 12:15:30;;;;;;;11.90;9.15;;;;;;;36.54;28.09;95055.78;5038399;28;20201;-85
2022/06/19 12:18:04;;;;;;;14.43;7.15;;;;;;;36.50;28.09;95054.16;5026108;28;20218;-85
2022/06/19 12:20:39;;;;;;;13.05;6.80;;;;;;;36.46;29.32;95051.41;5011324;28;20312;-85
2022/06/19 12:23:13;;;;;;;9.95;6.82;;;;;;;36.41;27.71;95051.69;5003344;28;20568;-85
2022/06/19 12:25:51;;;;;;;10.38;7.00;;;;;;;36.45;28.21;95049.84;5011841;28;20198;-85
2022/06/19 12:28:29;;;;;;;11.25;6.88;;;;;;;36.39;27.72;95047.78;5012458;28;20864;-85
2022/06/19 12:30:59;;;;;;;9.10;6.60;;;;;;;36.27;27.94;95046.81;5030838;28;20201;-85
2022/06/19 12:33:29;;;;;;;9.18;6.70;;;;;;;36.18;27.30;95040.84;5030777;28;20233;-85
2022/06/19 12:35:58;;;;;;;15.45;7.90;;;;;;;36.22;28.37;95041.72;5031453;28;20214;-84
2022/06/19 12:38:30;;;;;;;12.23;7.47;;;;;;;36.36;27.91;95032.44;5032005;28;20204;-84
2022/06/19 12:41:21;;;;;;;12.68;6.30;;;;;;;36.36;27.60;95032.44;5031026;28;20201;-85
2022/06/19 12:43:58;;;;;;;14.40;7.13;;;;;;;36.41;28.26;95029.44;5021810;28;20233;-85
2022/06/19 12:46:38;;;;;;;13.45;6.63;;;;;;;36.57;28.41;95030.91;5031665;28;20206;-85
2022/06/19 12:49:20;;;;;;;15.20;7.07;;;;;;;36.70;28.23;95031.53;5031608;28;20232;-85
2022/06/19 12:51:58;;;;;;;12.98;6.78;;;;;;;36.72;28.61;95018.56;5030604;28;20206;-85
2022/06/19 12:54:57;;;;;;;9.15;6.68;;;;;;;36.75;27.31;95033.19;5031154;28;20247;-85
2022/06/19 12:57:41;;;;;;;13.35;6.88;;;;;;;36.68;28.09;95015.00;5031815;28;20198;-85
2022/06/19 13:00:25;;;;;;;10.25;7.03;;;;;;;36.74;27.91;95020.88;5030447;28;20252;-84
2022/06/19 13:03:32;;;;;;;7.68;6.85;;;;;;;36.78;27.58;95016.34;5030466;28;20238;-85
2022/06/19 13:06:10;;;;;;;12.95;7.03;;;;;;;36.88;27.33;95019.22;5021943;28;20198;-84
2022/06/19 13:08:45;;;;;;;12.45;7.07;;;;;;;36.90;27.40;95014.25;5048587;28;20193;-84
2022/06/19 13:11:31;;;;;;;12.82;7.20;;;;;;;36.87;27.41;95014.19;5052367;28;20649;-84